createdAt,value
2022-09-11T00:02:01.422Z,94.32
2022-09-11T00:04:33.327Z,96.00
2022-09-11T00:07:02.524Z,114.65
2022-09-11T00:09:33.075Z,105.47
2022-09-11T00:12:02.660Z,109.82
2022-09-11T00:14:31.905Z,104.63
2022-09-11T00:17:01.081Z,109.90
2022-09-11T00:19:30.370Z,109.80
2022-09-11T00:21:59.523Z,98.20
2022-09-11T00:24:28.739Z,102.00
2022-09-11T00:26:59.390Z,104.30
2022-09-11T00:29:29.982Z,101.35
2022-09-11T00:31:59.133Z,97.22
2022-09-11T00:34:28.542Z,115.75
2022-09-11T00:36:58.201Z,95.82
2022-09-11T00:39:27.564Z,94.63
2022-09-11T00:41:58.599Z,86.40
2022-09-11T00:45:03.832Z,98.18
2022-09-11T00:47:33.659Z,97.15
2022-09-11T00:50:13.523Z,94.97
2022-09-11T00:52:53.177Z,87.90
2022-09-11T00:55:27.390Z,78.78
2022-09-11T00:58:03.029Z,99.28
2022-09-11T01:00:32.660Z,91.95
2022-09-11T01:03:03.267Z,95.60
2022-09-11T01:05:34.949Z,86.93
2022-09-11T01:08:04.696Z,94.18
2022-09-11T01:10:47.975Z,94.57
2022-09-11T01:13:29.138Z,80.88
2022-09-11T01:16:10.706Z,86.97
2022-09-11T01:18:47.111Z,82.10
2022-09-11T01:21:53.486Z,87.18
2022-09-11T01:24:56.500Z,78.30
2022-09-11T01:30:18.800Z,40.03
2022-09-11T01:33:23.190Z,58.97
2022-09-11T01:36:01.435Z,65.07
2022-09-11T01:38:41.856Z,67.53
2022-09-11T01:44:00.641Z,41.55
2022-09-11T01:46:36.311Z,55.33
2022-09-11T01:49:16.957Z,74.55
2022-09-11T01:51:59.283Z,67.22
2022-09-11T01:54:42.795Z,57.92
2022-09-11T01:57:38.268Z,62.92
2022-09-11T02:00:14.606Z,78.35
2022-09-11T02:03:01.939Z,65.97
2022-09-11T03:34:18.030Z,24.27
2022-09-11T03:36:49.160Z,30.63
2022-09-11T03:39:18.385Z,41.30
2022-09-11T03:41:47.912Z,51.97
2022-09-11T03:44:17.832Z,53.90
2022-09-11T03:46:47.399Z,64.03
2022-09-11T03:49:18.196Z,68.55
2022-09-11T03:51:48.117Z,63.60
2022-09-11T03:54:17.838Z,55.70
2022-09-11T03:56:48.678Z,50.55
2022-09-11T03:59:20.125Z,60.97
2022-09-11T04:01:51.023Z,65.82
2022-09-11T04:04:23.182Z,60.85
2022-09-11T04:06:53.067Z,63.17
2022-09-11T04:09:22.242Z,57.45
2022-09-11T04:11:54.254Z,68.73
2022-09-11T04:14:28.848Z,65.45
2022-09-11T04:17:00.747Z,64.90
2022-09-11T04:19:32.502Z,60.75
2022-09-11T04:22:02.098Z,57.20
2022-09-11T04:24:31.742Z,61.08
2022-09-11T04:27:01.784Z,67.20
2022-09-11T04:29:32.620Z,47.70
2022-09-11T04:32:03.536Z,59.70
2022-09-11T04:34:38.266Z,60.65
2022-09-11T04:37:08.354Z,45.75
2022-09-11T04:39:41.360Z,66.30
2022-09-11T04:42:11.054Z,60.08
2022-09-11T04:44:42.173Z,61.15
2022-09-11T04:47:11.374Z,64.20
2022-09-11T04:49:43.244Z,59.88
2022-09-11T04:52:12.973Z,62.88
2022-09-11T04:54:42.346Z,65.18
2022-09-11T04:57:14.108Z,57.33
2022-09-11T04:59:43.285Z,63.85
2022-09-11T05:02:15.221Z,46.45
2022-09-11T05:04:49.510Z,52.80
2022-09-11T05:07:19.539Z,58.80
2022-09-11T05:09:54.526Z,69.22
2022-09-11T05:12:24.346Z,73.32
2022-09-11T05:14:53.549Z,85.05
2022-09-11T05:17:22.862Z,70.93
2022-09-11T05:19:53.520Z,68.05
2022-09-11T05:22:25.115Z,79.03
2022-09-11T05:24:58.685Z,91.25
2022-09-11T05:27:28.363Z,86.65
2022-09-11T05:29:58.241Z,74.32
2022-09-11T05:32:27.553Z,62.05
2022-09-11T05:34:59.617Z,79.57
2022-09-11T05:37:29.082Z,77.97
2022-09-11T05:39:58.898Z,88.03
2022-09-11T05:42:28.728Z,91.88
2022-09-11T05:44:58.423Z,97.03
2022-09-11T05:47:29.408Z,77.72
2022-09-11T05:50:00.288Z,86.00
2022-09-11T05:52:30.639Z,80.60
2022-09-11T05:54:59.899Z,79.88
2022-09-11T05:57:29.099Z,114.15
2022-09-11T05:59:58.912Z,122.25
2022-09-11T06:02:28.553Z,172.73
2022-09-11T06:04:59.625Z,85.53
2022-09-11T06:07:28.841Z,103.63
2022-09-11T06:10:02.993Z,88.22
2022-09-11T06:12:35.140Z,105.90
2022-09-11T06:15:04.650Z,113.88
2022-09-11T06:17:33.855Z,216.32
2022-09-11T06:20:05.169Z,110.97
2022-09-11T06:22:37.789Z,117.60
2022-09-11T06:27:37.223Z,73.30
2022-09-11T06:30:09.066Z,136.05
2022-09-11T06:35:11.759Z,107.75
2022-09-11T06:37:41.346Z,123.22
2022-09-11T06:40:13.549Z,93.95
2022-09-11T06:42:43.003Z,114.60
2022-09-11T06:45:12.922Z,109.78
2022-09-11T06:47:43.313Z,310.92
2022-09-11T06:50:14.807Z,167.52
2022-09-11T06:53:02.415Z,112.93
2022-09-11T06:55:32.881Z,105.20
2022-09-11T06:58:08.883Z,118.28
2022-09-11T07:00:38.691Z,107.97
2022-09-11T07:03:08.117Z,133.68
2022-09-11T07:05:40.165Z,120.90
2022-09-11T07:08:09.477Z,140.05
2022-09-11T07:10:39.308Z,116.88
2022-09-11T07:13:09.061Z,114.70
2022-09-11T07:15:38.775Z,107.45
2022-09-11T07:18:08.585Z,121.68
2022-09-11T07:20:42.563Z,118.85
2022-09-11T07:23:13.002Z,115.40
2022-09-11T07:25:43.494Z,125.10
2022-09-11T07:28:12.630Z,135.98
2022-09-11T07:30:42.410Z,148.05
2022-09-11T07:33:11.883Z,143.93
2022-09-11T07:35:42.617Z,211.40
2022-09-11T07:38:11.911Z,122.57
2022-09-11T07:40:44.212Z,114.05
2022-09-11T07:43:13.950Z,124.93
2022-09-11T07:45:43.905Z,144.90
2022-09-11T07:48:13.605Z,123.20
2022-09-11T07:50:44.226Z,122.95
2022-09-11T07:53:13.658Z,128.00
2022-09-11T07:55:43.713Z,119.50
2022-09-11T07:58:13.640Z,152.02
2022-09-11T08:00:43.287Z,127.18
2022-09-11T08:03:20.044Z,123.03
2022-09-11T08:05:50.904Z,189.10
2022-09-11T08:08:21.244Z,136.70
2022-09-11T08:10:51.052Z,154.32
2022-09-11T08:13:21.897Z,131.77
2022-09-11T08:15:52.264Z,144.27
2022-09-11T08:18:22.737Z,154.45
2022-09-11T08:20:54.662Z,139.88
2022-09-11T08:23:24.049Z,155.95
2022-09-11T08:25:53.926Z,174.55
2022-09-11T08:28:25.180Z,148.93
2022-09-11T08:31:02.055Z,141.48
2022-09-11T08:33:33.420Z,163.73
2022-09-11T08:36:12.200Z,139.48
2022-09-11T08:38:44.996Z,201.25
2022-09-11T08:41:41.220Z,230.43
2022-09-11T08:44:22.208Z,152.27
2022-09-11T08:46:58.544Z,136.98
2022-09-11T08:49:30.773Z,147.90
2022-09-11T08:52:07.209Z,136.23
2022-09-11T08:54:40.307Z,149.48
2022-09-11T08:57:20.765Z,174.25
2022-09-11T09:00:15.223Z,121.00
2022-09-11T09:03:19.238Z,130.90
2022-09-11T09:05:57.969Z,118.75
2022-09-11T09:08:44.941Z,116.55
2022-09-11T09:11:30.495Z,118.43
2022-09-11T09:14:18.535Z,124.43
2022-09-11T09:16:54.572Z,121.65
2022-09-11T09:19:31.754Z,116.47
2022-09-11T09:22:13.579Z,121.43
2022-09-11T09:24:51.040Z,120.07
2022-09-11T09:27:28.377Z,126.40
2022-09-11T09:30:03.377Z,128.95
2022-09-11T09:32:40.670Z,124.15
2022-09-11T09:35:18.080Z,125.15
2022-09-11T09:37:48.765Z,129.73
2022-09-11T09:40:20.423Z,126.45
2022-09-11T09:43:30.190Z,145.32
2022-09-11T09:46:16.909Z,125.10
2022-09-11T09:48:46.184Z,143.32
2022-09-11T09:51:16.317Z,131.55
2022-09-11T09:53:50.130Z,135.10
2022-09-11T09:56:23.789Z,167.00
2022-09-11T09:59:02.871Z,124.55
2022-09-11T10:01:48.478Z,150.00
2022-09-11T10:04:22.344Z,119.90
2022-09-11T10:06:53.983Z,123.15
2022-09-11T10:09:29.784Z,136.60
2022-09-11T10:12:03.668Z,130.50
2022-09-11T10:14:54.189Z,125.00
2022-09-11T10:17:32.298Z,152.30
2022-09-11T10:20:27.002Z,141.77
2022-09-11T10:22:57.306Z,190.45
2022-09-11T10:25:30.091Z,122.13
2022-09-11T10:30:39.177Z,100.97
2022-09-11T10:33:19.944Z,149.95
2022-09-11T10:35:55.240Z,119.82
2022-09-11T10:38:30.903Z,192.45
2022-09-11T10:41:09.557Z,128.60
2022-09-11T10:43:56.067Z,269.85
2022-09-11T10:46:38.768Z,142.77
2022-09-11T10:49:25.907Z,157.48
2022-09-11T10:52:06.296Z,205.52
2022-09-11T10:54:53.386Z,164.02
2022-09-11T10:57:29.150Z,156.93
2022-09-11T11:00:09.898Z,159.13
2022-09-11T11:02:42.172Z,196.85
2022-09-11T11:05:26.254Z,160.82
2022-09-11T11:08:28.002Z,226.70
2022-09-11T11:11:15.299Z,123.68
2022-09-11T11:14:17.229Z,494.30
2022-09-11T11:16:59.708Z,408.85
2022-09-11T11:19:52.956Z,539.80
2022-09-11T11:22:37.246Z,417.58
2022-09-11T11:25:23.078Z,266.40
2022-09-11T11:28:13.518Z,446.20
2022-09-11T11:30:53.295Z,266.55
2022-09-11T11:33:47.131Z,345.77
2022-09-11T11:36:28.542Z,339.63
2022-09-11T11:39:03.421Z,289.38
2022-09-11T11:41:39.515Z,627.78
2022-09-11T11:44:15.903Z,257.35
2022-09-11T11:46:50.000Z,331.65
2022-09-11T11:49:28.407Z,384.92
2022-09-11T11:52:06.518Z,348.10
2022-09-11T11:54:46.653Z,470.05
2022-09-11T11:57:22.376Z,426.10
2022-09-11T12:00:00.249Z,117.90
2022-09-11T12:02:38.618Z,182.30
2022-09-11T12:05:14.445Z,615.45
2022-09-11T12:07:43.812Z,205.15
2022-09-11T12:10:31.084Z,277.30
2022-09-11T12:13:03.696Z,356.45
2022-09-11T12:15:35.857Z,180.00
2022-09-11T12:18:21.036Z,408.40
2022-09-11T12:20:51.723Z,111.50
2022-09-11T12:23:56.364Z,102.63
2022-09-11T12:26:27.749Z,219.07
2022-09-11T12:29:51.865Z,107.53
2022-09-11T12:32:42.130Z,84.85
2022-09-11T12:35:34.964Z,275.83
2022-09-11T12:38:22.091Z,181.50
2022-09-11T12:40:56.519Z,265.38
2022-09-11T12:43:46.770Z,172.25
2022-09-11T12:47:12.132Z,200.57
2022-09-11T12:49:43.947Z,150.18
2022-09-11T12:52:29.233Z,105.10
2022-09-11T12:55:05.762Z,139.65
2022-09-11T12:57:38.890Z,220.93
2022-09-11T13:00:22.932Z,239.43
2022-09-11T13:02:57.843Z,108.55
2022-09-11T13:05:34.693Z,144.30
2022-09-11T13:08:08.234Z,246.35
2022-09-11T13:10:40.534Z,363.45
2022-09-11T13:13:44.628Z,205.10
2022-09-11T13:16:24.356Z,304.17
2022-09-11T13:19:09.430Z,234.30
2022-09-11T13:21:40.861Z,108.25
2022-09-11T13:24:25.581Z,138.13
2022-09-11T13:26:59.867Z,193.48
2022-09-11T13:29:32.698Z,176.43
2022-09-11T13:32:11.495Z,171.68
2022-09-11T13:34:45.276Z,245.38
2022-09-11T13:37:20.917Z,141.77
2022-09-11T13:39:50.262Z,122.18
2022-09-11T13:42:25.818Z,172.23
2022-09-11T13:44:58.156Z,135.00
2022-09-11T13:47:31.542Z,125.82
2022-09-11T13:50:03.565Z,139.25
2022-09-11T13:52:35.695Z,127.47
2022-09-11T13:55:12.630Z,122.05
2022-09-11T13:57:56.574Z,171.48
2022-09-11T14:00:44.951Z,139.88
2022-09-11T14:03:22.829Z,132.48
2022-09-11T14:05:55.229Z,175.00
2022-09-11T14:08:32.569Z,133.63
2022-09-11T14:11:10.990Z,138.50
2022-09-11T14:13:50.590Z,193.05
2022-09-11T14:16:27.170Z,176.52
2022-09-11T14:19:00.863Z,151.15
2022-09-11T14:21:35.871Z,155.73
2022-09-11T14:24:23.359Z,164.40
2022-09-11T14:26:52.707Z,185.40
2022-09-11T14:29:29.201Z,187.82
2022-09-11T14:32:35.103Z,182.93
2022-09-11T14:35:06.641Z,178.32
2022-09-11T14:37:43.735Z,162.98
2022-09-11T14:40:17.953Z,163.70
2022-09-11T14:42:48.102Z,202.77
2022-09-11T14:45:23.980Z,157.30
2022-09-11T14:47:53.537Z,211.80
2022-09-11T14:50:24.753Z,189.50
2022-09-11T14:52:54.090Z,185.13
2022-09-11T14:55:23.371Z,149.40
2022-09-11T14:57:52.605Z,234.27
2022-09-11T15:00:23.479Z,174.75
2022-09-11T15:02:52.894Z,165.23
2022-09-11T15:05:24.725Z,241.57
2022-09-11T15:07:54.064Z,186.57
2022-09-11T15:10:23.859Z,187.02
2022-09-11T15:12:53.021Z,220.40
2022-09-11T15:15:29.283Z,210.15
2022-09-11T15:17:58.521Z,211.68
2022-09-11T15:20:27.883Z,171.27
2022-09-11T15:22:57.894Z,194.25
2022-09-11T15:25:27.106Z,217.45
2022-09-11T15:27:56.301Z,197.38
2022-09-11T15:30:25.874Z,242.45
2022-09-11T15:32:56.844Z,207.43
2022-09-11T15:35:28.499Z,192.88
2022-09-11T15:38:05.850Z,176.60
2022-09-11T15:40:36.978Z,202.43
2022-09-11T15:43:06.240Z,236.32
2022-09-11T15:45:35.588Z,170.05
2022-09-11T15:48:06.299Z,226.02
2022-09-11T15:50:35.690Z,197.32
2022-09-11T15:53:05.047Z,178.95
2022-09-11T15:55:35.615Z,202.40
2022-09-11T15:58:04.901Z,190.27
2022-09-11T16:00:36.853Z,167.93
2022-09-11T16:03:07.924Z,256.92
2022-09-11T16:05:43.110Z,194.80
2022-09-11T16:08:13.128Z,217.20
2022-09-11T16:10:42.735Z,163.32
2022-09-11T16:13:12.031Z,224.90
2022-09-11T16:15:41.284Z,159.55
2022-09-11T16:18:12.183Z,196.90
2022-09-11T16:20:43.647Z,238.60
2022-09-11T16:23:13.225Z,207.95
2022-09-11T16:25:44.077Z,171.80
2022-09-11T16:28:13.364Z,215.93
2022-09-11T16:30:45.846Z,234.43
2022-09-11T16:33:18.273Z,209.60
2022-09-11T16:35:59.767Z,182.65
2022-09-11T16:38:30.290Z,218.65
2022-09-11T16:41:03.576Z,180.90
2022-09-11T16:43:32.786Z,183.07
2022-09-11T16:46:02.510Z,205.35
2022-09-11T16:48:34.021Z,194.82
2022-09-11T16:51:03.225Z,195.35
2022-09-11T16:53:35.397Z,169.45
2022-09-11T16:56:08.349Z,210.18
2022-09-11T16:58:42.315Z,165.23
2022-09-11T17:01:16.988Z,201.13
2022-09-11T17:03:51.186Z,174.55
2022-09-11T17:06:22.554Z,199.60
2022-09-11T17:08:55.033Z,196.20
2022-09-11T17:11:24.610Z,211.65
2022-09-11T17:13:56.885Z,193.85
2022-09-11T17:16:31.463Z,171.63
2022-09-11T17:19:03.059Z,202.43
2022-09-11T17:21:37.074Z,207.82
2022-09-11T17:24:07.980Z,208.80
2022-09-11T17:26:37.563Z,211.23
2022-09-11T17:29:08.351Z,209.25
2022-09-11T17:31:37.604Z,226.98
2022-09-11T17:34:17.172Z,188.20
2022-09-11T17:36:46.558Z,184.88
2022-09-11T17:39:16.087Z,221.68
2022-09-11T17:41:48.002Z,192.30
2022-09-11T17:44:17.475Z,236.80
2022-09-11T17:46:49.220Z,217.20
2022-09-11T17:49:22.267Z,192.30
2022-09-11T17:51:51.844Z,152.35
2022-09-11T17:54:22.205Z,207.27
2022-09-11T17:56:51.983Z,195.40
2022-09-11T17:59:21.334Z,190.95
2022-09-11T18:01:51.232Z,202.43
2022-09-11T18:04:22.568Z,165.27
2022-09-11T18:06:53.024Z,177.75
2022-09-11T18:09:22.516Z,235.40
2022-09-11T18:11:54.025Z,207.13
2022-09-11T18:14:27.571Z,223.63
2022-09-11T18:16:57.702Z,193.88
2022-09-11T18:19:28.426Z,202.40
2022-09-11T18:22:01.743Z,198.27
2022-09-11T18:24:31.411Z,189.18
2022-09-11T18:27:01.316Z,198.93
2022-09-11T18:29:30.853Z,189.25
2022-09-11T18:32:00.546Z,237.10
2022-09-11T18:34:32.366Z,200.02
2022-09-11T18:37:02.842Z,175.52
2022-09-11T18:39:32.228Z,188.68
2022-09-11T18:42:01.977Z,194.77
2022-09-11T18:44:31.291Z,187.50
2022-09-11T18:47:00.562Z,218.65
2022-09-11T18:49:31.111Z,209.95
2022-09-11T18:52:00.666Z,198.05
2022-09-11T18:54:30.430Z,167.70
2022-09-11T18:57:00.247Z,168.27
2022-09-11T18:59:29.727Z,214.82
2022-09-11T19:02:00.251Z,202.95
2022-09-11T19:04:31.485Z,223.35
2022-09-11T19:07:00.743Z,160.63
2022-09-11T19:09:29.968Z,197.63
2022-09-11T19:12:00.291Z,185.85
2022-09-11T19:14:30.661Z,169.57
2022-09-11T19:17:00.466Z,200.25
2022-09-11T19:19:31.158Z,177.05
2022-09-11T19:22:00.855Z,197.20
2022-09-11T19:24:30.772Z,193.18
2022-09-11T19:27:00.410Z,217.85
2022-09-11T19:29:29.924Z,200.13
2022-09-11T19:32:00.504Z,199.05
2022-09-11T19:34:34.053Z,218.00
2022-09-11T19:37:05.902Z,245.85
2022-09-11T19:39:35.261Z,197.57
2022-09-11T19:42:05.072Z,189.45
2022-09-11T19:44:34.543Z,159.10
2022-09-11T19:47:04.584Z,218.15
2022-09-11T19:49:35.194Z,151.50
2022-09-11T19:52:04.987Z,185.20
2022-09-11T19:54:35.510Z,204.95
2022-09-11T19:57:05.367Z,206.07
2022-09-11T19:59:34.890Z,198.25
2022-09-11T20:02:04.204Z,207.38
2022-09-11T20:04:34.989Z,184.93
2022-09-11T20:07:04.329Z,197.57
2022-09-11T20:09:34.072Z,195.20
2022-09-11T20:12:04.050Z,195.68
2022-09-11T20:14:33.222Z,193.27
2022-09-11T20:17:05.016Z,231.98
2022-09-11T20:19:35.751Z,238.02
2022-09-11T20:22:05.234Z,171.90
2022-09-11T20:24:34.661Z,213.23
2022-09-11T20:27:03.879Z,190.75
2022-09-11T20:29:33.124Z,178.35
2022-09-11T20:32:02.902Z,202.98
2022-09-11T20:34:32.436Z,195.60
2022-09-11T20:37:06.900Z,228.85
2022-09-11T20:39:44.303Z,192.05
2022-09-11T20:42:14.181Z,252.40
2022-09-11T20:44:45.531Z,166.52
2022-09-11T20:47:14.776Z,218.15
2022-09-11T20:49:46.454Z,211.25
2022-09-11T20:52:17.687Z,166.33
2022-09-11T20:54:48.610Z,195.98
2022-09-11T20:57:18.015Z,199.80
2022-09-11T20:59:47.309Z,178.48
2022-09-11T21:02:17.738Z,199.98
2022-09-11T21:04:49.050Z,181.80
2022-09-11T21:07:19.657Z,193.90
2022-09-11T21:09:49.041Z,175.98
2022-09-11T21:12:18.546Z,211.82
2022-09-11T21:14:47.763Z,221.85
2022-09-11T21:17:16.978Z,187.43
2022-09-11T21:19:46.245Z,187.90
2022-09-11T21:22:15.621Z,190.05
2022-09-11T21:24:46.507Z,223.23
2022-09-11T21:27:15.735Z,197.27
2022-09-11T21:29:44.984Z,222.70
2022-09-11T21:32:14.263Z,184.68
2022-09-11T21:34:43.538Z,176.02
2022-09-11T21:37:13.450Z,202.63
2022-09-11T21:39:42.835Z,199.18
2022-09-11T21:42:13.531Z,206.40
2022-09-11T21:44:42.746Z,184.18
2022-09-11T21:47:12.013Z,190.90
2022-09-11T21:49:41.234Z,198.90
2022-09-11T21:52:10.436Z,174.88
2022-09-11T21:54:39.845Z,173.98
2022-09-11T21:57:09.111Z,187.35
2022-09-11T21:59:39.952Z,190.80
2022-09-11T22:02:09.220Z,220.88
2022-09-11T22:04:38.683Z,172.57
2022-09-11T22:07:07.959Z,165.55
2022-09-11T22:09:37.272Z,209.85
2022-09-11T22:12:06.936Z,200.75
2022-09-11T22:14:36.416Z,170.48
2022-09-11T22:17:07.176Z,195.15
2022-09-11T22:19:36.381Z,172.35
2022-09-11T22:22:06.773Z,169.25
2022-09-11T22:24:35.967Z,176.20
2022-09-11T22:27:05.496Z,176.90
2022-09-11T22:29:34.713Z,187.90
2022-09-11T22:32:04.416Z,190.50
2022-09-11T22:34:38.263Z,180.18
2022-09-11T22:37:07.642Z,188.80
2022-09-11T22:39:36.956Z,191.70
2022-09-11T22:42:06.579Z,185.70
2022-09-11T22:44:35.900Z,169.88
2022-09-11T22:47:05.738Z,183.93
2022-09-11T22:49:36.270Z,179.85
2022-09-11T22:52:05.631Z,196.50
2022-09-11T22:54:34.892Z,174.85
2022-09-11T22:57:04.215Z,190.40
2022-09-11T22:59:33.430Z,190.65
2022-09-11T23:02:03.213Z,164.73
2022-09-11T23:04:32.480Z,224.45
2022-09-11T23:07:17.149Z,200.00
2022-09-11T23:09:46.474Z,197.38
2022-09-11T23:12:15.659Z,173.13
2022-09-11T23:14:45.743Z,167.38
2022-09-11T23:17:15.166Z,205.27
2022-09-11T23:19:44.378Z,169.48
2022-09-11T23:22:14.873Z,198.68
2022-09-11T23:24:44.116Z,168.45
2022-09-11T23:27:13.374Z,179.00
2022-09-11T23:29:42.515Z,162.45
2022-09-11T23:32:11.771Z,209.93
2022-09-11T23:34:40.992Z,169.80
2022-09-11T23:37:10.183Z,152.63
2022-09-11T23:39:41.091Z,198.32
2022-09-11T23:42:10.406Z,156.63
2022-09-11T23:44:39.621Z,187.95
2022-09-11T23:47:09.048Z,203.20
2022-09-11T23:49:38.317Z,166.35
2022-09-11T23:52:07.611Z,195.00
2022-09-11T23:54:36.922Z,191.77
2022-09-11T23:57:08.102Z,165.63
2022-09-11T23:59:37.381Z,181.63
